sensor_id;sensor_type;location;lat;lon;timestamp;P1;durP1;ratioP1;P2;durP2;ratioP2
25824;SDS011;13658;44.534;18.694;2023-04-19T00:02:02;73.18;;;45.90;;
25824;SDS011;13658;44.534;18.694;2023-04-19T00:04:27;67.30;;;44.97;;
25824;SDS011;13658;44.534;18.694;2023-04-19T00:06:54;66.28;;;43.58;;
25824;SDS011;13658;44.534;18.694;2023-04-19T00:09:20;67.53;;;44.22;;
25824;SDS011;13658;44.534;18.694;2023-04-19T00:11:46;68.60;;;46.25;;
25824;SDS011;13658;44.534;18.694;2023-04-19T00:14:12;68.05;;;45.67;;
25824;SDS011;13658;44.534;18.694;2023-04-19T00:16:38;68.30;;;43.35;;
25824;SDS011;13658;44.534;18.694;2023-04-19T00:19:05;70.43;;;45.25;;
25824;SDS011;13658;44.534;18.694;2023-04-19T00:21:31;64.53;;;41.88;;
25824;SDS011;13658;44.534;18.694;2023-04-19T00:23:57;59.75;;;41.72;;
25824;SDS011;13658;44.534;18.694;2023-04-19T00:26:23;63.83;;;41.92;;
25824;SDS011;13658;44.534;18.694;2023-04-19T00:28:50;65.68;;;40.58;;
25824;SDS011;13658;44.534;18.694;2023-04-19T00:31:16;64.53;;;40.40;;
25824;SDS011;13658;44.534;18.694;2023-04-19T00:33:42;64.88;;;39.70;;
25824;SDS011;13658;44.534;18.694;2023-04-19T00:36:08;59.58;;;38.17;;
25824;SDS011;13658;44.534;18.694;2023-04-19T00:38:35;58.97;;;37.45;;
25824;SDS011;13658;44.534;18.694;2023-04-19T00:41:01;52.95;;;34.28;;
25824;SDS011;13658;44.534;18.694;2023-04-19T00:43:27;54.67;;;34.10;;
25824;SDS011;13658;44.534;18.694;2023-04-19T00:45:53;54.70;;;34.85;;
25824;SDS011;13658;44.534;18.694;2023-04-19T00:48:19;54.00;;;32.55;;
25824;SDS011;13658;44.534;18.694;2023-04-19T00:50:45;52.15;;;32.38;;
25824;SDS011;13658;44.534;18.694;2023-04-19T00:53:11;50.63;;;32.47;;
25824;SDS011;13658;44.534;18.694;2023-04-19T00:55:38;50.60;;;33.03;;
25824;SDS011;13658;44.534;18.694;2023-04-19T00:58:04;54.17;;;33.35;;
25824;SDS011;13658;44.534;18.694;2023-04-19T01:00:32;53.53;;;33.00;;
25824;SDS011;13658;44.534;18.694;2023-04-19T01:02:59;50.20;;;32.40;;
25824;SDS011;13658;44.534;18.694;2023-04-19T01:05:25;52.28;;;33.92;;
25824;SDS011;13658;44.534;18.694;2023-04-19T01:07:51;53.35;;;33.28;;
25824;SDS011;13658;44.534;18.694;2023-04-19T01:10:17;55.10;;;33.08;;
25824;SDS011;13658;44.534;18.694;2023-04-19T01:12:43;53.50;;;33.33;;
25824;SDS011;13658;44.534;18.694;2023-04-19T01:15:09;52.58;;;33.13;;
25824;SDS011;13658;44.534;18.694;2023-04-19T01:17:36;51.75;;;32.90;;
25824;SDS011;13658;44.534;18.694;2023-04-19T01:20:03;54.00;;;33.65;;
25824;SDS011;13658;44.534;18.694;2023-04-19T01:22:33;55.17;;;31.92;;
25824;SDS011;13658;44.534;18.694;2023-04-19T01:25:03;54.65;;;32.55;;
25824;SDS011;13658;44.534;18.694;2023-04-19T01:27:29;54.00;;;33.25;;
25824;SDS011;13658;44.534;18.694;2023-04-19T01:29:56;51.33;;;31.95;;
25824;SDS011;13658;44.534;18.694;2023-04-19T01:32:25;53.50;;;32.75;;
25824;SDS011;13658;44.534;18.694;2023-04-19T01:34:51;53.00;;;33.05;;
25824;SDS011;13658;44.534;18.694;2023-04-19T01:37:17;54.10;;;33.22;;
25824;SDS011;13658;44.534;18.694;2023-04-19T01:39:43;53.38;;;33.72;;
25824;SDS011;13658;44.534;18.694;2023-04-19T01:42:09;52.97;;;33.38;;
25824;SDS011;13658;44.534;18.694;2023-04-19T01:44:35;53.05;;;32.72;;
25824;SDS011;13658;44.534;18.694;2023-04-19T01:47:01;56.22;;;32.28;;
25824;SDS011;13658;44.534;18.694;2023-04-19T01:49:27;51.58;;;32.95;;
25824;SDS011;13658;44.534;18.694;2023-04-19T01:51:53;55.42;;;32.95;;
25824;SDS011;13658;44.534;18.694;2023-04-19T01:54:19;54.85;;;34.20;;
25824;SDS011;13658;44.534;18.694;2023-04-19T01:56:48;54.50;;;32.88;;
25824;SDS011;13658;44.534;18.694;2023-04-19T01:59:14;51.45;;;33.10;;
25824;SDS011;13658;44.534;18.694;2023-04-19T02:01:40;47.83;;;31.88;;
25824;SDS011;13658;44.534;18.694;2023-04-19T02:04:05;50.67;;;31.65;;
25824;SDS011;13658;44.534;18.694;2023-04-19T02:06:32;48.97;;;30.40;;
25824;SDS011;13658;44.534;18.694;2023-04-19T02:08:58;46.45;;;30.65;;
25824;SDS011;13658;44.534;18.694;2023-04-19T02:11:24;51.30;;;31.00;;
25824;SDS011;13658;44.534;18.694;2023-04-19T02:13:50;49.00;;;29.40;;
25824;SDS011;13658;44.534;18.694;2023-04-19T02:16:16;45.40;;;29.55;;
25824;SDS011;13658;44.534;18.694;2023-04-19T02:18:42;48.92;;;29.63;;
25824;SDS011;13658;44.534;18.694;2023-04-19T02:21:08;49.58;;;31.08;;
25824;SDS011;13658;44.534;18.694;2023-04-19T02:23:35;46.58;;;29.05;;
25824;SDS011;13658;44.534;18.694;2023-04-19T02:26:03;46.28;;;29.30;;
25824;SDS011;13658;44.534;18.694;2023-04-19T02:28:29;44.65;;;28.00;;
25824;SDS011;13658;44.534;18.694;2023-04-19T02:30:56;45.78;;;28.50;;
25824;SDS011;13658;44.534;18.694;2023-04-19T02:33:23;46.03;;;29.00;;
25824;SDS011;13658;44.534;18.694;2023-04-19T02:35:51;48.45;;;30.10;;
25824;SDS011;13658;44.534;18.694;2023-04-19T02:38:17;49.45;;;29.35;;
25824;SDS011;13658;44.534;18.694;2023-04-19T02:40:43;47.40;;;28.58;;
25824;SDS011;13658;44.534;18.694;2023-04-19T02:43:09;45.97;;;28.42;;
25824;SDS011;13658;44.534;18.694;2023-04-19T02:45:35;45.38;;;29.45;;
25824;SDS011;13658;44.534;18.694;2023-04-19T02:48:01;46.65;;;28.77;;
25824;SDS011;13658;44.534;18.694;2023-04-19T02:50:28;49.58;;;30.13;;
25824;SDS011;13658;44.534;18.694;2023-04-19T02:52:54;48.05;;;31.88;;
25824;SDS011;13658;44.534;18.694;2023-04-19T02:55:23;55.47;;;32.50;;
25824;SDS011;13658;44.534;18.694;2023-04-19T02:57:59;47.10;;;30.25;;
25824;SDS011;13658;44.534;18.694;2023-04-19T03:00:25;50.17;;;32.53;;
25824;SDS011;13658;44.534;18.694;2023-04-19T03:03:01;50.97;;;33.00;;
25824;SDS011;13658;44.534;18.694;2023-04-19T03:05:30;49.60;;;30.70;;
25824;SDS011;13658;44.534;18.694;2023-04-19T03:07:56;51.28;;;31.25;;
25824;SDS011;13658;44.534;18.694;2023-04-19T03:10:23;58.15;;;38.05;;
25824;SDS011;13658;44.534;18.694;2023-04-19T03:12:49;61.72;;;39.35;;
25824;SDS011;13658;44.534;18.694;2023-04-19T03:15:16;71.68;;;45.00;;
25824;SDS011;13658;44.534;18.694;2023-04-19T03:17:43;54.33;;;33.22;;
25824;SDS011;13658;44.534;18.694;2023-04-19T03:20:10;50.70;;;31.75;;
25824;SDS011;13658;44.534;18.694;2023-04-19T03:22:37;55.80;;;31.48;;
25824;SDS011;13658;44.534;18.694;2023-04-19T03:25:03;53.80;;;32.13;;
25824;SDS011;13658;44.534;18.694;2023-04-19T03:27:30;50.58;;;29.17;;
25824;SDS011;13658;44.534;18.694;2023-04-19T03:30:01;46.03;;;29.25;;
25824;SDS011;13658;44.534;18.694;2023-04-19T03:32:29;52.22;;;30.70;;
25824;SDS011;13658;44.534;18.694;2023-04-19T03:34:56;51.33;;;30.52;;
25824;SDS011;13658;44.534;18.694;2023-04-19T03:37:22;53.03;;;31.75;;
25824;SDS011;13658;44.534;18.694;2023-04-19T03:39:48;49.80;;;30.40;;
25824;SDS011;13658;44.534;18.694;2023-04-19T03:42:20;50.70;;;30.95;;
25824;SDS011;13658;44.534;18.694;2023-04-19T03:45:04;50.97;;;29.77;;
25824;SDS011;13658;44.534;18.694;2023-04-19T03:47:34;58.42;;;31.73;;
25824;SDS011;13658;44.534;18.694;2023-04-19T03:50:01;50.20;;;31.00;;
25824;SDS011;13658;44.534;18.694;2023-04-19T03:52:30;60.45;;;32.95;;
25824;SDS011;13658;44.534;18.694;2023-04-19T03:54:56;55.65;;;33.15;;
25824;SDS011;13658;44.534;18.694;2023-04-19T03:57:30;56.22;;;32.05;;
25824;SDS011;13658;44.534;18.694;2023-04-19T04:00:04;65.00;;;35.22;;
25824;SDS011;13658;44.534;18.694;2023-04-19T04:02:39;67.35;;;34.35;;
25824;SDS011;13658;44.534;18.694;2023-04-19T04:05:05;58.88;;;34.15;;
25824;SDS011;13658;44.534;18.694;2023-04-19T04:07:33;63.63;;;34.88;;
25824;SDS011;13658;44.534;18.694;2023-04-19T04:10:00;64.53;;;34.42;;
25824;SDS011;13658;44.534;18.694;2023-04-19T04:12:26;62.97;;;34.83;;
25824;SDS011;13658;44.534;18.694;2023-04-19T04:14:54;61.58;;;34.60;;
25824;SDS011;13658;44.534;18.694;2023-04-19T04:17:21;69.32;;;36.90;;
25824;SDS011;13658;44.534;18.694;2023-04-19T04:19:49;67.43;;;37.45;;
25824;SDS011;13658;44.534;18.694;2023-04-19T04:22:16;63.92;;;36.38;;
25824;SDS011;13658;44.534;18.694;2023-04-19T04:24:42;67.75;;;37.97;;
25824;SDS011;13658;44.534;18.694;2023-04-19T04:27:31;90.65;;;44.38;;
25824;SDS011;13658;44.534;18.694;2023-04-19T04:29:58;84.00;;;43.60;;
25824;SDS011;13658;44.534;18.694;2023-04-19T04:32:25;79.50;;;40.05;;
25824;SDS011;13658;44.534;18.694;2023-04-19T04:34:57;87.22;;;44.38;;
25824;SDS011;13658;44.534;18.694;2023-04-19T04:37:36;88.20;;;44.15;;
25824;SDS011;13658;44.534;18.694;2023-04-19T04:40:03;87.03;;;45.13;;
25824;SDS011;13658;44.534;18.694;2023-04-19T04:42:35;78.60;;;42.63;;
25824;SDS011;13658;44.534;18.694;2023-04-19T04:45:02;72.10;;;40.40;;
25824;SDS011;13658;44.534;18.694;2023-04-19T04:47:31;65.85;;;37.70;;
25824;SDS011;13658;44.534;18.694;2023-04-19T04:49:59;70.75;;;39.92;;
25824;SDS011;13658;44.534;18.694;2023-04-19T04:52:27;76.72;;;42.95;;
25824;SDS011;13658;44.534;18.694;2023-04-19T04:55:13;65.47;;;38.70;;
25824;SDS011;13658;44.534;18.694;2023-04-19T04:57:42;62.40;;;38.65;;
25824;SDS011;13658;44.534;18.694;2023-04-19T05:00:14;58.55;;;35.22;;
25824;SDS011;13658;44.534;18.694;2023-04-19T05:02:53;59.50;;;35.03;;
25824;SDS011;13658;44.534;18.694;2023-04-19T05:05:20;65.38;;;38.47;;
25824;SDS011;13658;44.534;18.694;2023-04-19T05:07:47;51.63;;;32.53;;
25824;SDS011;13658;44.534;18.694;2023-04-19T05:10:13;52.35;;;33.63;;
25824;SDS011;13658;44.534;18.694;2023-04-19T05:12:43;55.30;;;36.15;;
25824;SDS011;13658;44.534;18.694;2023-04-19T05:15:10;49.92;;;32.60;;
25824;SDS011;13658;44.534;18.694;2023-04-19T05:17:43;45.78;;;30.83;;
25824;SDS011;13658;44.534;18.694;2023-04-19T05:20:11;40.45;;;27.15;;
25824;SDS011;13658;44.534;18.694;2023-04-19T05:22:37;42.17;;;26.13;;
25824;SDS011;13658;44.534;18.694;2023-04-19T05:25:06;40.13;;;25.75;;
25824;SDS011;13658;44.534;18.694;2023-04-19T05:27:34;39.05;;;26.65;;
25824;SDS011;13658;44.534;18.694;2023-04-19T05:30:01;38.22;;;26.73;;
25824;SDS011;13658;44.534;18.694;2023-04-19T05:32:29;43.13;;;29.90;;
25824;SDS011;13658;44.534;18.694;2023-04-19T05:34:57;45.50;;;29.92;;
25824;SDS011;13658;44.534;18.694;2023-04-19T05:37:23;47.85;;;34.25;;
25824;SDS011;13658;44.534;18.694;2023-04-19T05:39:49;46.33;;;30.77;;
25824;SDS011;13658;44.534;18.694;2023-04-19T05:42:17;43.55;;;29.25;;
25824;SDS011;13658;44.534;18.694;2023-04-19T05:44:43;47.25;;;29.58;;
25824;SDS011;13658;44.534;18.694;2023-04-19T05:47:09;50.45;;;34.08;;
25824;SDS011;13658;44.534;18.694;2023-04-19T05:49:59;47.03;;;29.27;;
25824;SDS011;13658;44.534;18.694;2023-04-19T05:52:30;56.35;;;36.25;;
25824;SDS011;13658;44.534;18.694;2023-04-19T05:54:58;61.08;;;39.88;;
25824;SDS011;13658;44.534;18.694;2023-04-19T05:57:25;60.33;;;40.47;;
25824;SDS011;13658;44.534;18.694;2023-04-19T05:59:51;65.53;;;46.35;;
25824;SDS011;13658;44.534;18.694;2023-04-19T06:02:21;47.63;;;30.42;;
25824;SDS011;13658;44.534;18.694;2023-04-19T06:04:47;42.40;;;28.45;;
25824;SDS011;13658;44.534;18.694;2023-04-19T06:07:13;43.25;;;31.17;;
25824;SDS011;13658;44.534;18.694;2023-04-19T06:09:39;36.03;;;26.60;;
25824;SDS011;13658;44.534;18.694;2023-04-19T06:12:06;37.58;;;24.75;;
25824;SDS011;13658;44.534;18.694;2023-04-19T06:14:32;38.38;;;27.55;;
25824;SDS011;13658;44.534;18.694;2023-04-19T06:16:58;40.25;;;26.80;;
25824;SDS011;13658;44.534;18.694;2023-04-19T06:19:24;36.25;;;23.35;;
25824;SDS011;13658;44.534;18.694;2023-04-19T06:21:51;29.20;;;19.75;;
25824;SDS011;13658;44.534;18.694;2023-04-19T06:24:17;26.58;;;17.45;;
25824;SDS011;13658;44.534;18.694;2023-04-19T06:26:43;23.48;;;16.40;;
25824;SDS011;13658;44.534;18.694;2023-04-19T06:29:09;25.23;;;17.65;;
25824;SDS011;13658;44.534;18.694;2023-04-19T06:31:35;24.55;;;17.33;;
25824;SDS011;13658;44.534;18.694;2023-04-19T06:34:01;27.33;;;17.27;;
25824;SDS011;13658;44.534;18.694;2023-04-19T06:36:27;35.67;;;21.70;;
25824;SDS011;13658;44.534;18.694;2023-04-19T06:38:53;20.60;;;15.40;;
25824;SDS011;13658;44.534;18.694;2023-04-19T06:41:19;23.13;;;15.02;;
25824;SDS011;13658;44.534;18.694;2023-04-19T06:43:45;23.05;;;16.40;;
25824;SDS011;13658;44.534;18.694;2023-04-19T06:46:11;27.50;;;17.63;;
25824;SDS011;13658;44.534;18.694;2023-04-19T06:48:38;25.08;;;16.88;;
25824;SDS011;13658;44.534;18.694;2023-04-19T06:51:04;27.88;;;18.55;;
25824;SDS011;13658;44.534;18.694;2023-04-19T06:53:30;26.85;;;14.40;;
25824;SDS011;13658;44.534;18.694;2023-04-19T06:55:57;24.60;;;13.25;;
25824;SDS011;13658;44.534;18.694;2023-04-19T06:58:27;21.75;;;14.10;;
25824;SDS011;13658;44.534;18.694;2023-04-19T07:00:53;21.90;;;14.05;;
25824;SDS011;13658;44.534;18.694;2023-04-19T07:03:20;23.15;;;14.90;;
25824;SDS011;13658;44.534;18.694;2023-04-19T07:05:46;22.73;;;15.90;;
25824;SDS011;13658;44.534;18.694;2023-04-19T07:08:13;22.90;;;15.68;;
25824;SDS011;13658;44.534;18.694;2023-04-19T07:10:39;27.63;;;16.75;;
25824;SDS011;13658;44.534;18.694;2023-04-19T07:13:10;26.45;;;17.20;;
25824;SDS011;13658;44.534;18.694;2023-04-19T07:15:37;24.67;;;16.77;;
25824;SDS011;13658;44.534;18.694;2023-04-19T07:18:03;22.92;;;15.65;;
25824;SDS011;13658;44.534;18.694;2023-04-19T07:20:29;26.45;;;18.55;;
25824;SDS011;13658;44.534;18.694;2023-04-19T07:22:59;30.88;;;19.35;;
25824;SDS011;13658;44.534;18.694;2023-04-19T07:25:25;25.33;;;15.98;;
25824;SDS011;13658;44.534;18.694;2023-04-19T07:27:52;27.08;;;16.88;;
25824;SDS011;13658;44.534;18.694;2023-04-19T07:30:19;25.60;;;16.48;;
25824;SDS011;13658;44.534;18.694;2023-04-19T07:32:45;26.25;;;17.65;;
25824;SDS011;13658;44.534;18.694;2023-04-19T07:35:11;33.70;;;19.65;;
25824;SDS011;13658;44.534;18.694;2023-04-19T07:37:37;25.65;;;17.90;;
25824;SDS011;13658;44.534;18.694;2023-04-19T07:40:03;29.05;;;17.75;;
25824;SDS011;13658;44.534;18.694;2023-04-19T07:42:30;30.50;;;21.48;;
25824;SDS011;13658;44.534;18.694;2023-04-19T07:44:56;26.40;;;18.63;;
25824;SDS011;13658;44.534;18.694;2023-04-19T07:47:23;28.90;;;19.17;;
25824;SDS011;13658;44.534;18.694;2023-04-19T07:49:53;29.77;;;20.02;;
25824;SDS011;13658;44.534;18.694;2023-04-19T07:52:20;31.50;;;21.38;;
25824;SDS011;13658;44.534;18.694;2023-04-19T07:54:46;26.38;;;20.67;;
25824;SDS011;13658;44.534;18.694;2023-04-19T07:57:12;29.38;;;20.30;;
25824;SDS011;13658;44.534;18.694;2023-04-19T07:59:41;27.02;;;20.05;;
25824;SDS011;13658;44.534;18.694;2023-04-19T08:02:07;24.65;;;17.83;;
25824;SDS011;13658;44.534;18.694;2023-04-19T08:04:33;32.95;;;18.45;;
25824;SDS011;13658;44.534;18.694;2023-04-19T08:06:59;26.45;;;17.98;;
25824;SDS011;13658;44.534;18.694;2023-04-19T08:09:25;26.40;;;17.65;;
25824;SDS011;13658;44.534;18.694;2023-04-19T08:11:51;30.58;;;20.55;;
25824;SDS011;13658;44.534;18.694;2023-04-19T08:14:17;31.70;;;26.13;;
25824;SDS011;13658;44.534;18.694;2023-04-19T08:16:43;26.90;;;18.70;;
25824;SDS011;13658;44.534;18.694;2023-04-19T08:19:09;33.38;;;23.95;;
25824;SDS011;13658;44.534;18.694;2023-04-19T08:21:36;28.92;;;20.55;;
25824;SDS011;13658;44.534;18.694;2023-04-19T08:24:02;28.50;;;20.15;;
25824;SDS011;13658;44.534;18.694;2023-04-19T08:26:28;34.45;;;22.45;;
25824;SDS011;13658;44.534;18.694;2023-04-19T08:28:54;34.10;;;23.90;;
25824;SDS011;13658;44.534;18.694;2023-04-19T08:31:19;40.10;;;25.25;;
25824;SDS011;13658;44.534;18.694;2023-04-19T08:33:46;44.00;;;27.23;;
25824;SDS011;13658;44.534;18.694;2023-04-19T08:36:12;43.78;;;28.80;;
25824;SDS011;13658;44.534;18.694;2023-04-19T08:38:38;43.67;;;26.98;;
25824;SDS011;13658;44.534;18.694;2023-04-19T08:41:05;48.78;;;29.55;;
25824;SDS011;13658;44.534;18.694;2023-04-19T08:43:32;42.95;;;27.55;;
25824;SDS011;13658;44.534;18.694;2023-04-19T08:46:01;44.67;;;28.60;;
25824;SDS011;13658;44.534;18.694;2023-04-19T08:48:28;37.20;;;24.63;;
25824;SDS011;13658;44.534;18.694;2023-04-19T08:50:55;47.22;;;30.00;;
25824;SDS011;13658;44.534;18.694;2023-04-19T08:53:23;39.10;;;25.48;;
25824;SDS011;13658;44.534;18.694;2023-04-19T08:55:52;37.83;;;24.73;;
25824;SDS011;13658;44.534;18.694;2023-04-19T08:58:23;37.85;;;24.05;;
25824;SDS011;13658;44.534;18.694;2023-04-19T09:00:50;38.88;;;23.77;;
25824;SDS011;13658;44.534;18.694;2023-04-19T09:03:16;43.05;;;26.92;;
25824;SDS011;13658;44.534;18.694;2023-04-19T09:05:42;37.70;;;24.65;;
25824;SDS011;13658;44.534;18.694;2023-04-19T09:10:56;38.35;;;24.85;;
25824;SDS011;13658;44.534;18.694;2023-04-19T09:13:23;35.63;;;22.55;;
25824;SDS011;13658;44.534;18.694;2023-04-19T09:15:50;35.15;;;22.40;;
25824;SDS011;13658;44.534;18.694;2023-04-19T09:18:17;37.45;;;22.63;;
25824;SDS011;13658;44.534;18.694;2023-04-19T09:20:44;45.78;;;24.67;;
25824;SDS011;13658;44.534;18.694;2023-04-19T09:23:11;39.42;;;24.15;;
25824;SDS011;13658;44.534;18.694;2023-04-19T09:25:51;38.42;;;22.95;;
25824;SDS011;13658;44.534;18.694;2023-04-19T09:28:22;34.90;;;21.02;;
25824;SDS011;13658;44.534;18.694;2023-04-19T09:30:48;37.63;;;21.70;;
25824;SDS011;13658;44.534;18.694;2023-04-19T09:33:34;35.55;;;21.55;;
25824;SDS011;13658;44.534;18.694;2023-04-19T09:36:03;36.40;;;20.30;;
25824;SDS011;13658;44.534;18.694;2023-04-19T09:38:39;39.10;;;22.73;;
25824;SDS011;13658;44.534;18.694;2023-04-19T09:41:14;39.47;;;23.08;;
25824;SDS011;13658;44.534;18.694;2023-04-19T09:43:41;35.75;;;23.02;;
25824;SDS011;13658;44.534;18.694;2023-04-19T09:46:07;30.67;;;19.02;;
25824;SDS011;13658;44.534;18.694;2023-04-19T09:48:33;32.25;;;22.05;;
25824;SDS011;13658;44.534;18.694;2023-04-19T09:51:01;18.13;;;12.98;;
25824;SDS011;13658;44.534;18.694;2023-04-19T09:53:28;18.95;;;13.68;;
25824;SDS011;13658;44.534;18.694;2023-04-19T09:55:58;22.23;;;14.10;;
25824;SDS011;13658;44.534;18.694;2023-04-19T09:58:24;19.45;;;13.35;;
25824;SDS011;13658;44.534;18.694;2023-04-19T10:00:50;17.40;;;11.10;;
25824;SDS011;13658;44.534;18.694;2023-04-19T10:03:17;14.68;;;9.23;;
25824;SDS011;13658;44.534;18.694;2023-04-19T10:05:46;19.02;;;11.70;;
25824;SDS011;13658;44.534;18.694;2023-04-19T10:08:12;15.38;;;9.35;;
25824;SDS011;13658;44.534;18.694;2023-04-19T10:10:39;17.30;;;10.27;;
25824;SDS011;13658;44.534;18.694;2023-04-19T10:13:06;15.38;;;9.80;;
25824;SDS011;13658;44.534;18.694;2023-04-19T10:15:35;21.40;;;9.50;;
25824;SDS011;13658;44.534;18.694;2023-04-19T10:18:03;17.23;;;11.35;;
25824;SDS011;13658;44.534;18.694;2023-04-19T10:20:35;12.55;;;8.75;;
25824;SDS011;13658;44.534;18.694;2023-04-19T10:23:14;15.85;;;9.88;;
25824;SDS011;13658;44.534;18.694;2023-04-19T10:25:44;15.38;;;8.73;;
25824;SDS011;13658;44.534;18.694;2023-04-19T10:28:11;14.85;;;7.60;;
25824;SDS011;13658;44.534;18.694;2023-04-19T10:30:51;18.55;;;10.35;;
25824;SDS011;13658;44.534;18.694;2023-04-19T10:33:26;18.48;;;11.02;;
25824;SDS011;13658;44.534;18.694;2023-04-19T10:35:57;15.00;;;9.45;;
25824;SDS011;13658;44.534;18.694;2023-04-19T10:38:37;12.02;;;8.93;;
25824;SDS011;13658;44.534;18.694;2023-04-19T10:41:16;14.35;;;8.15;;
25824;SDS011;13658;44.534;18.694;2023-04-19T10:43:47;15.13;;;10.27;;
25824;SDS011;13658;44.534;18.694;2023-04-19T10:46:36;20.10;;;11.75;;
25824;SDS011;13658;44.534;18.694;2023-04-19T10:49:06;21.00;;;12.27;;
25824;SDS011;13658;44.534;18.694;2023-04-19T10:51:34;21.33;;;13.15;;
25824;SDS011;13658;44.534;18.694;2023-04-19T11:04:01;17.73;;;12.88;;
25824;SDS011;13658;44.534;18.694;2023-04-19T11:06:27;11.93;;;9.90;;
25824;SDS011;13658;44.534;18.694;2023-04-19T11:08:53;14.27;;;11.00;;
25824;SDS011;13658;44.534;18.694;2023-04-19T11:11:19;19.88;;;15.30;;
25824;SDS011;13658;44.534;18.694;2023-04-19T11:13:48;16.60;;;10.13;;
25824;SDS011;13658;44.534;18.694;2023-04-19T11:16:15;43.03;;;22.58;;
25824;SDS011;13658;44.534;18.694;2023-04-19T11:18:41;13.93;;;9.93;;
25824;SDS011;13658;44.534;18.694;2023-04-19T11:21:11;14.27;;;7.97;;
25824;SDS011;13658;44.534;18.694;2023-04-19T11:23:41;13.20;;;7.60;;
25824;SDS011;13658;44.534;18.694;2023-04-19T11:26:10;23.63;;;14.88;;
25824;SDS011;13658;44.534;18.694;2023-04-19T11:28:37;22.52;;;14.05;;
25824;SDS011;13658;44.534;18.694;2023-04-19T11:31:03;29.48;;;17.65;;
25824;SDS011;13658;44.534;18.694;2023-04-19T11:33:34;16.63;;;9.48;;
25824;SDS011;13658;44.534;18.694;2023-04-19T11:36:00;14.13;;;10.13;;
25824;SDS011;13658;44.534;18.694;2023-04-19T11:38:28;18.95;;;11.52;;
25824;SDS011;13658;44.534;18.694;2023-04-19T11:41:00;16.80;;;11.43;;
25824;SDS011;13658;44.534;18.694;2023-04-19T11:43:35;18.60;;;11.05;;
25824;SDS011;13658;44.534;18.694;2023-04-19T11:46:05;13.43;;;7.35;;
25824;SDS011;13658;44.534;18.694;2023-04-19T11:48:35;10.82;;;7.50;;
25824;SDS011;13658;44.534;18.694;2023-04-19T11:51:02;8.45;;;6.65;;
25824;SDS011;13658;44.534;18.694;2023-04-19T11:53:29;11.18;;;7.55;;
25824;SDS011;13658;44.534;18.694;2023-04-19T11:56:03;9.52;;;6.13;;
25824;SDS011;13658;44.534;18.694;2023-04-19T11:58:40;8.95;;;6.25;;
25824;SDS011;13658;44.534;18.694;2023-04-19T12:01:09;10.30;;;7.82;;
25824;SDS011;13658;44.534;18.694;2023-04-19T12:03:43;9.35;;;6.10;;
25824;SDS011;13658;44.534;18.694;2023-04-19T12:06:11;9.13;;;6.20;;
25824;SDS011;13658;44.534;18.694;2023-04-19T12:08:41;10.70;;;6.15;;
25824;SDS011;13658;44.534;18.694;2023-04-19T12:11:08;15.35;;;8.73;;
25824;SDS011;13658;44.534;18.694;2023-04-19T12:13:34;18.10;;;10.93;;
25824;SDS011;13658;44.534;18.694;2023-04-19T12:16:01;19.33;;;10.88;;
25824;SDS011;13658;44.534;18.694;2023-04-19T12:18:27;13.43;;;8.43;;
25824;SDS011;13658;44.534;18.694;2023-04-19T12:21:07;15.00;;;8.75;;
25824;SDS011;13658;44.534;18.694;2023-04-19T12:23:33;12.50;;;8.20;;
25824;SDS011;13658;44.534;18.694;2023-04-19T12:26:02;12.63;;;8.23;;
25824;SDS011;13658;44.534;18.694;2023-04-19T12:28:32;13.45;;;8.20;;
25824;SDS011;13658;44.534;18.694;2023-04-19T12:30:58;11.52;;;8.18;;
25824;SDS011;13658;44.534;18.694;2023-04-19T12:33:24;11.77;;;6.63;;
25824;SDS011;13658;44.534;18.694;2023-04-19T12:35:50;11.82;;;6.90;;
25824;SDS011;13658;44.534;18.694;2023-04-19T12:38:16;17.27;;;7.43;;
25824;SDS011;13658;44.534;18.694;2023-04-19T12:40:42;9.38;;;6.35;;
25824;SDS011;13658;44.534;18.694;2023-04-19T12:43:08;8.00;;;6.65;;
25824;SDS011;13658;44.534;18.694;2023-04-19T12:45:34;8.23;;;6.78;;
25824;SDS011;13658;44.534;18.694;2023-04-19T12:48:00;10.95;;;6.57;;
25824;SDS011;13658;44.534;18.694;2023-04-19T12:50:26;11.20;;;6.85;;
25824;SDS011;13658;44.534;18.694;2023-04-19T12:52:52;10.20;;;6.75;;
25824;SDS011;13658;44.534;18.694;2023-04-19T12:55:18;10.80;;;6.07;;
25824;SDS011;13658;44.534;18.694;2023-04-19T12:57:44;10.68;;;6.97;;
25824;SDS011;13658;44.534;18.694;2023-04-19T13:00:10;9.40;;;6.90;;
25824;SDS011;13658;44.534;18.694;2023-04-19T13:02:37;9.88;;;6.13;;
25824;SDS011;13658;44.534;18.694;2023-04-19T13:05:03;12.13;;;6.53;;
25824;SDS011;13658;44.534;18.694;2023-04-19T13:07:30;11.25;;;6.85;;
25824;SDS011;13658;44.534;18.694;2023-04-19T13:09:56;13.90;;;9.07;;
25824;SDS011;13658;44.534;18.694;2023-04-19T13:12:22;11.07;;;7.05;;
25824;SDS011;13658;44.534;18.694;2023-04-19T13:14:48;18.23;;;10.57;;
25824;SDS011;13658;44.534;18.694;2023-04-19T13:17:19;9.85;;;6.07;;
25824;SDS011;13658;44.534;18.694;2023-04-19T13:19:45;10.27;;;5.82;;
25824;SDS011;13658;44.534;18.694;2023-04-19T13:22:11;9.68;;;6.20;;
25824;SDS011;13658;44.534;18.694;2023-04-19T13:24:37;17.85;;;10.10;;
25824;SDS011;13658;44.534;18.694;2023-04-19T13:27:03;18.27;;;12.27;;
25824;SDS011;13658;44.534;18.694;2023-04-19T13:29:29;43.08;;;27.00;;
25824;SDS011;13658;44.534;18.694;2023-04-19T13:31:55;15.93;;;10.73;;
25824;SDS011;13658;44.534;18.694;2023-04-19T13:34:22;13.57;;;9.73;;
25824;SDS011;13658;44.534;18.694;2023-04-19T13:36:47;18.50;;;11.30;;
25824;SDS011;13658;44.534;18.694;2023-04-19T13:39:14;18.17;;;10.82;;
25824;SDS011;13658;44.534;18.694;2023-04-19T13:41:40;14.80;;;10.50;;
25824;SDS011;13658;44.534;18.694;2023-04-19T13:44:06;15.70;;;9.93;;
25824;SDS011;13658;44.534;18.694;2023-04-19T13:46:32;31.73;;;19.75;;
25824;SDS011;13658;44.534;18.694;2023-04-19T13:48:58;24.02;;;15.70;;
25824;SDS011;13658;44.534;18.694;2023-04-19T13:51:24;40.90;;;21.75;;
25824;SDS011;13658;44.534;18.694;2023-04-19T13:53:51;22.58;;;15.50;;
25824;SDS011;13658;44.534;18.694;2023-04-19T13:56:17;22.33;;;13.57;;
25824;SDS011;13658;44.534;18.694;2023-04-19T13:58:43;18.98;;;10.80;;
25824;SDS011;13658;44.534;18.694;2023-04-19T14:01:11;17.85;;;11.95;;
25824;SDS011;13658;44.534;18.694;2023-04-19T14:03:37;20.70;;;13.20;;
25824;SDS011;13658;44.534;18.694;2023-04-19T14:06:03;18.48;;;12.98;;
25824;SDS011;13658;44.534;18.694;2023-04-19T14:08:29;16.00;;;12.25;;
25824;SDS011;13658;44.534;18.694;2023-04-19T14:10:55;17.75;;;12.75;;
25824;SDS011;13658;44.534;18.694;2023-04-19T14:13:21;37.03;;;19.42;;
25824;SDS011;13658;44.534;18.694;2023-04-19T14:15:47;17.90;;;11.95;;
25824;SDS011;13658;44.534;18.694;2023-04-19T14:18:14;27.67;;;18.23;;
25824;SDS011;13658;44.534;18.694;2023-04-19T14:20:43;23.15;;;15.00;;
25824;SDS011;13658;44.534;18.694;2023-04-19T14:23:09;26.25;;;18.02;;
25824;SDS011;13658;44.534;18.694;2023-04-19T14:25:36;65.00;;;42.17;;
25824;SDS011;13658;44.534;18.694;2023-04-19T14:28:02;33.40;;;21.10;;